sensor_id;sensor_type;location;lat;lon;timestamp;pressure;altitude;pressure_sealevel;temperature;humidity
76229;BME280;65021;53.174;18.160;2023-08-17T00:00:39;101598.67;;;18.43;88.84
76229;BME280;65021;53.174;18.160;2023-08-17T00:03:26;101593.14;;;18.41;88.71
76229;BME280;65021;53.174;18.160;2023-08-17T00:05:52;101590.27;;;18.38;88.77
76229;BME280;65021;53.174;18.160;2023-08-17T00:08:19;101591.61;;;18.36;88.59
76229;BME280;65021;53.174;18.160;2023-08-17T00:10:45;101591.83;;;18.35;88.51
76229;BME280;65021;53.174;18.160;2023-08-17T00:13:13;101594.29;;;18.32;88.51
76229;BME280;65021;53.174;18.160;2023-08-17T00:15:40;101595.31;;;18.31;88.36
76229;BME280;65021;53.174;18.160;2023-08-17T00:18:07;101601.84;;;18.30;88.53
76229;BME280;65021;53.174;18.160;2023-08-17T00:20:34;101603.19;;;18.29;88.34
76229;BME280;65021;53.174;18.160;2023-08-17T00:23:01;101606.61;;;18.28;88.39
76229;BME280;65021;53.174;18.160;2023-08-17T00:25:27;101604.98;;;18.26;88.37
76229;BME280;65021;53.174;18.160;2023-08-17T00:27:54;101601.10;;;18.25;88.47
76229;BME280;65021;53.174;18.160;2023-08-17T00:30:20;101596.82;;;18.24;88.20
76229;BME280;65021;53.174;18.160;2023-08-17T00:32:47;101594.85;;;18.22;88.43
76229;BME280;65021;53.174;18.160;2023-08-17T00:35:13;101592.17;;;18.21;88.20
76229;BME280;65021;53.174;18.160;2023-08-17T00:37:40;101593.20;;;18.20;88.55
76229;BME280;65021;53.174;18.160;2023-08-17T00:40:07;101593.65;;;18.18;88.62
76229;BME280;65021;53.174;18.160;2023-08-17T00:42:33;101598.36;;;18.17;88.52
76229;BME280;65021;53.174;18.160;2023-08-17T00:45:01;101594.10;;;18.17;88.53
76229;BME280;65021;53.174;18.160;2023-08-17T00:47:29;101594.14;;;18.17;88.65
76229;BME280;65021;53.174;18.160;2023-08-17T00:49:56;101595.38;;;18.16;88.51
76229;BME280;65021;53.174;18.160;2023-08-17T00:52:23;101600.55;;;18.16;88.43
76229;BME280;65021;53.174;18.160;2023-08-17T00:54:50;101593.64;;;18.14;88.88
76229;BME280;65021;53.174;18.160;2023-08-17T00:57:17;101596.95;;;18.13;89.03
76229;BME280;65021;53.174;18.160;2023-08-17T00:59:44;101593.33;;;18.11;88.92
76229;BME280;65021;53.174;18.160;2023-08-17T01:02:10;101590.23;;;18.11;88.81
76229;BME280;65021;53.174;18.160;2023-08-17T01:04:37;101594.90;;;18.10;88.97
76229;BME280;65021;53.174;18.160;2023-08-17T01:07:03;101592.08;;;18.08;89.10
76229;BME280;65021;53.174;18.160;2023-08-17T01:09:30;101596.14;;;18.08;89.16
76229;BME280;65021;53.174;18.160;2023-08-17T01:12:15;101603.00;;;18.07;89.13
76229;BME280;65021;53.174;18.160;2023-08-17T01:14:52;101601.88;;;18.06;89.25
76229;BME280;65021;53.174;18.160;2023-08-17T01:17:48;101599.23;;;18.06;89.36
76229;BME280;65021;53.174;18.160;2023-08-17T01:20:19;101599.90;;;18.05;89.58
76229;BME280;65021;53.174;18.160;2023-08-17T01:22:48;101602.77;;;18.06;89.36
76229;BME280;65021;53.174;18.160;2023-08-17T01:25:16;101602.56;;;18.06;89.11
76229;BME280;65021;53.174;18.160;2023-08-17T01:27:46;101600.70;;;18.07;89.06
76229;BME280;65021;53.174;18.160;2023-08-17T01:30:15;101595.52;;;18.07;88.74
76229;BME280;65021;53.174;18.160;2023-08-17T01:33:08;101601.70;;;18.08;88.97
76229;BME280;65021;53.174;18.160;2023-08-17T01:35:42;101599.34;;;18.09;88.65
76229;BME280;65021;53.174;18.160;2023-08-17T01:38:20;101596.09;;;18.08;88.57
76229;BME280;65021;53.174;18.160;2023-08-17T01:40:49;101597.44;;;18.08;88.61
76229;BME280;65021;53.174;18.160;2023-08-17T01:43:16;101597.94;;;18.07;88.53
76229;BME280;65021;53.174;18.160;2023-08-17T01:45:44;101599.40;;;18.06;88.78
76229;BME280;65021;53.174;18.160;2023-08-17T01:48:10;101599.18;;;18.06;88.85
76229;BME280;65021;53.174;18.160;2023-08-17T01:50:37;101604.59;;;18.05;88.73
76229;BME280;65021;53.174;18.160;2023-08-17T01:53:03;101604.06;;;18.04;89.02
76229;BME280;65021;53.174;18.160;2023-08-17T01:55:30;101596.90;;;18.02;89.41
76229;BME280;65021;53.174;18.160;2023-08-17T01:57:57;101596.29;;;18.00;89.78
76229;BME280;65021;53.174;18.160;2023-08-17T02:00:23;101583.77;;;17.97;89.62
76229;BME280;65021;53.174;18.160;2023-08-17T02:02:50;101579.65;;;17.95;90.26
76229;BME280;65021;53.174;18.160;2023-08-17T02:05:16;101577.39;;;17.92;90.45
76229;BME280;65021;53.174;18.160;2023-08-17T02:07:43;101573.40;;;17.90;90.63
76229;BME280;65021;53.174;18.160;2023-08-17T02:10:09;101566.85;;;17.88;90.91
76229;BME280;65021;53.174;18.160;2023-08-17T02:12:36;101566.17;;;17.85;91.20
76229;BME280;65021;53.174;18.160;2023-08-17T02:15:03;101569.77;;;17.83;91.29
76229;BME280;65021;53.174;18.160;2023-08-17T02:17:29;101582.03;;;17.83;91.10
76229;BME280;65021;53.174;18.160;2023-08-17T02:19:56;101601.16;;;17.83;91.80
76229;BME280;65021;53.174;18.160;2023-08-17T02:22:22;101603.23;;;17.82;92.50
76229;BME280;65021;53.174;18.160;2023-08-17T02:24:49;101607.23;;;17.81;92.23
76229;BME280;65021;53.174;18.160;2023-08-17T02:27:15;101599.14;;;17.81;92.01
76229;BME280;65021;53.174;18.160;2023-08-17T02:29:42;101584.61;;;17.80;92.21
76229;BME280;65021;53.174;18.160;2023-08-17T02:32:08;101581.50;;;17.78;92.09
76229;BME280;65021;53.174;18.160;2023-08-17T02:34:35;101578.48;;;17.78;92.17
76229;BME280;65021;53.174;18.160;2023-08-17T02:37:02;101570.70;;;17.75;92.04
76229;BME280;65021;53.174;18.160;2023-08-17T02:39:28;101565.80;;;17.73;92.31
76229;BME280;65021;53.174;18.160;2023-08-17T02:41:55;101562.58;;;17.71;91.93
76229;BME280;65021;53.174;18.160;2023-08-17T02:44:21;101556.10;;;17.70;91.85
76229;BME280;65021;53.174;18.160;2023-08-17T02:46:48;101549.11;;;17.67;92.40
76229;BME280;65021;53.174;18.160;2023-08-17T02:49:15;101556.08;;;17.66;91.98
76229;BME280;65021;53.174;18.160;2023-08-17T02:51:41;101565.30;;;17.64;92.14
76229;BME280;65021;53.174;18.160;2023-08-17T02:54:09;101572.09;;;17.63;91.92
76229;BME280;65021;53.174;18.160;2023-08-17T02:56:36;101573.79;;;17.62;92.08
76229;BME280;65021;53.174;18.160;2023-08-17T02:59:02;101570.73;;;17.61;92.18
76229;BME280;65021;53.174;18.160;2023-08-17T03:01:29;101569.61;;;17.60;91.99
76229;BME280;65021;53.174;18.160;2023-08-17T03:03:56;101568.14;;;17.60;92.05
76229;BME280;65021;53.174;18.160;2023-08-17T03:06:22;101567.70;;;17.59;91.98
76229;BME280;65021;53.174;18.160;2023-08-17T03:08:49;101567.75;;;17.59;92.00
76229;BME280;65021;53.174;18.160;2023-08-17T03:11:16;101570.73;;;17.59;92.12
76229;BME280;65021;53.174;18.160;2023-08-17T03:13:42;101566.29;;;17.59;91.89
76229;BME280;65021;53.174;18.160;2023-08-17T03:16:09;101566.85;;;17.59;92.24
76229;BME280;65021;53.174;18.160;2023-08-17T03:18:35;101566.52;;;17.58;91.91
76229;BME280;65021;53.174;18.160;2023-08-17T03:21:02;101567.02;;;17.58;92.37
76229;BME280;65021;53.174;18.160;2023-08-17T03:23:28;101562.16;;;17.57;92.08
76229;BME280;65021;53.174;18.160;2023-08-17T03:25:55;101567.56;;;17.58;92.08
76229;BME280;65021;53.174;18.160;2023-08-17T03:28:21;101564.77;;;17.58;91.67
76229;BME280;65021;53.174;18.160;2023-08-17T03:30:48;101571.34;;;17.59;91.89
76229;BME280;65021;53.174;18.160;2023-08-17T03:33:14;101575.27;;;17.59;91.92
76229;BME280;65021;53.174;18.160;2023-08-17T03:35:44;101580.02;;;17.59;91.83
76229;BME280;65021;53.174;18.160;2023-08-17T03:38:13;101589.41;;;17.60;91.46
76229;BME280;65021;53.174;18.160;2023-08-17T03:40:39;101576.45;;;17.58;91.47
76229;BME280;65021;53.174;18.160;2023-08-17T03:43:06;101569.55;;;17.58;91.32
76229;BME280;65021;53.174;18.160;2023-08-17T03:45:33;101578.65;;;17.58;91.28
76229;BME280;65021;53.174;18.160;2023-08-17T03:47:59;101587.81;;;17.58;91.34
76229;BME280;65021;53.174;18.160;2023-08-17T03:50:28;101597.33;;;17.58;91.35
76229;BME280;65021;53.174;18.160;2023-08-17T03:52:55;101602.98;;;17.57;91.35
76229;BME280;65021;53.174;18.160;2023-08-17T03:55:21;101620.14;;;17.56;91.43
76229;BME280;65021;53.174;18.160;2023-08-17T03:57:48;101620.85;;;17.54;91.80
76229;BME280;65021;53.174;18.160;2023-08-17T04:00:15;101611.41;;;17.54;91.95
76229;BME280;65021;53.174;18.160;2023-08-17T04:02:42;101611.73;;;17.53;92.11
76229;BME280;65021;53.174;18.160;2023-08-17T04:05:09;101613.98;;;17.53;92.32
76229;BME280;65021;53.174;18.160;2023-08-17T04:07:36;101621.46;;;17.54;91.97
76229;BME280;65021;53.174;18.160;2023-08-17T04:10:05;101635.66;;;17.56;92.37
76229;BME280;65021;53.174;18.160;2023-08-17T04:12:32;101642.35;;;17.57;92.36
76229;BME280;65021;53.174;18.160;2023-08-17T04:14:58;101644.50;;;17.60;92.63
76229;BME280;65021;53.174;18.160;2023-08-17T04:17:25;101653.86;;;17.63;92.36
76229;BME280;65021;53.174;18.160;2023-08-17T04:19:52;101659.18;;;17.68;92.17
76229;BME280;65021;53.174;18.160;2023-08-17T04:22:18;101654.58;;;17.73;92.55
76229;BME280;65021;53.174;18.160;2023-08-17T04:24:45;101654.44;;;17.75;92.34
76229;BME280;65021;53.174;18.160;2023-08-17T04:27:11;101657.83;;;17.78;92.22
76229;BME280;65021;53.174;18.160;2023-08-17T04:29:40;101656.39;;;17.81;92.50
76229;BME280;65021;53.174;18.160;2023-08-17T04:32:06;101655.62;;;17.84;92.39
76229;BME280;65021;53.174;18.160;2023-08-17T04:34:33;101658.15;;;17.87;92.38
76229;BME280;65021;53.174;18.160;2023-08-17T04:37:00;101652.27;;;17.87;92.53
76229;BME280;65021;53.174;18.160;2023-08-17T04:39:26;101653.27;;;17.89;92.50
76229;BME280;65021;53.174;18.160;2023-08-17T04:41:53;101653.91;;;17.92;92.88
76229;BME280;65021;53.174;18.160;2023-08-17T04:44:22;101657.86;;;17.93;93.41
76229;BME280;65021;53.174;18.160;2023-08-17T04:46:49;101661.35;;;17.94;93.45
76229;BME280;65021;53.174;18.160;2023-08-17T04:49:15;101673.34;;;17.95;93.73
76229;BME280;65021;53.174;18.160;2023-08-17T04:51:42;101675.61;;;17.99;93.38
76229;BME280;65021;53.174;18.160;2023-08-17T04:54:08;101673.22;;;18.03;93.33
76229;BME280;65021;53.174;18.160;2023-08-17T04:56:35;101667.42;;;18.08;93.30
76229;BME280;65021;53.174;18.160;2023-08-17T04:59:01;101658.23;;;18.10;93.47
76229;BME280;65021;53.174;18.160;2023-08-17T05:01:28;101655.75;;;18.11;93.55
76229;BME280;65021;53.174;18.160;2023-08-17T05:03:55;101653.84;;;18.12;93.41
76229;BME280;65021;53.174;18.160;2023-08-17T05:06:21;101652.06;;;18.15;93.41
76229;BME280;65021;53.174;18.160;2023-08-17T05:08:48;101660.06;;;18.19;93.69
76229;BME280;65021;53.174;18.160;2023-08-17T05:11:14;101663.68;;;18.21;93.87
76229;BME280;65021;53.174;18.160;2023-08-17T05:13:41;101664.23;;;18.22;93.60
76229;BME280;65021;53.174;18.160;2023-08-17T05:16:07;101659.03;;;18.27;94.23
76229;BME280;65021;53.174;18.160;2023-08-17T05:18:34;101657.53;;;18.35;94.87
76229;BME280;65021;53.174;18.160;2023-08-17T05:21:00;101664.02;;;18.42;94.51
76229;BME280;65021;53.174;18.160;2023-08-17T05:23:27;101657.80;;;18.54;94.03
76229;BME280;65021;53.174;18.160;2023-08-17T05:25:53;101658.73;;;18.72;93.48
76229;BME280;65021;53.174;18.160;2023-08-17T05:28:20;101654.66;;;18.97;92.82
76229;BME280;65021;53.174;18.160;2023-08-17T05:30:48;101640.35;;;19.19;92.34
76229;BME280;65021;53.174;18.160;2023-08-17T05:33:15;101642.83;;;19.35;92.15
76229;BME280;65021;53.174;18.160;2023-08-17T05:35:42;101642.55;;;19.53;91.64
76229;BME280;65021;53.174;18.160;2023-08-17T05:38:08;101637.66;;;19.71;91.16
76229;BME280;65021;53.174;18.160;2023-08-17T05:40:36;101639.52;;;19.91;90.68
76229;BME280;65021;53.174;18.160;2023-08-17T05:43:03;101640.98;;;20.04;90.54
76229;BME280;65021;53.174;18.160;2023-08-17T05:45:29;101637.92;;;20.11;89.20
76229;BME280;65021;53.174;18.160;2023-08-17T05:47:56;101644.82;;;20.07;88.54
76229;BME280;65021;53.174;18.160;2023-08-17T05:50:22;101646.77;;;19.99;88.16
76229;BME280;65021;53.174;18.160;2023-08-17T05:52:49;101640.66;;;19.88;87.63
76229;BME280;65021;53.174;18.160;2023-08-17T05:55:15;101632.17;;;19.78;87.55
76229;BME280;65021;53.174;18.160;2023-08-17T05:57:42;101629.38;;;19.68;87.46
76229;BME280;65021;53.174;18.160;2023-08-17T06:00:09;101627.59;;;19.58;87.04
76229;BME280;65021;53.174;18.160;2023-08-17T06:02:39;101626.94;;;19.46;87.26
76229;BME280;65021;53.174;18.160;2023-08-17T06:05:06;101627.05;;;19.38;87.33
76229;BME280;65021;53.174;18.160;2023-08-17T06:07:33;101619.70;;;19.32;87.23
76229;BME280;65021;53.174;18.160;2023-08-17T06:10:04;101624.21;;;19.32;87.04
76229;BME280;65021;53.174;18.160;2023-08-17T06:12:32;101634.60;;;19.34;87.21
76229;BME280;65021;53.174;18.160;2023-08-17T06:14:59;101642.39;;;19.38;86.73
76229;BME280;65021;53.174;18.160;2023-08-17T06:17:25;101654.48;;;19.43;86.50
76229;BME280;65021;53.174;18.160;2023-08-17T06:19:52;101660.32;;;19.46;86.46
76229;BME280;65021;53.174;18.160;2023-08-17T06:22:18;101666.34;;;19.50;85.56
76229;BME280;65021;53.174;18.160;2023-08-17T06:24:45;101667.64;;;19.54;85.53
76229;BME280;65021;53.174;18.160;2023-08-17T06:27:15;101674.28;;;19.69;85.85
76229;BME280;65021;53.174;18.160;2023-08-17T06:29:42;101675.14;;;19.87;84.44
76229;BME280;65021;53.174;18.160;2023-08-17T06:32:08;101669.02;;;19.97;83.82
76229;BME280;65021;53.174;18.160;2023-08-17T06:34:35;101667.73;;;20.14;83.92
76229;BME280;65021;53.174;18.160;2023-08-17T06:37:02;101668.45;;;20.36;81.70
76229;BME280;65021;53.174;18.160;2023-08-17T06:39:29;101673.58;;;20.57;81.66
76229;BME280;65021;53.174;18.160;2023-08-17T06:41:56;101676.61;;;20.80;81.49
76229;BME280;65021;53.174;18.160;2023-08-17T06:44:23;101666.04;;;21.15;81.42
76229;BME280;65021;53.174;18.160;2023-08-17T06:46:49;101657.86;;;21.33;80.80
76229;BME280;65021;53.174;18.160;2023-08-17T06:49:16;101659.02;;;21.43;79.78
76229;BME280;65021;53.174;18.160;2023-08-17T06:51:43;101664.89;;;21.39;79.02
76229;BME280;65021;53.174;18.160;2023-08-17T06:54:09;101666.45;;;21.47;80.04
76229;BME280;65021;53.174;18.160;2023-08-17T06:56:36;101675.11;;;21.59;78.53
76229;BME280;65021;53.174;18.160;2023-08-17T06:59:03;101674.56;;;21.57;78.48
76229;BME280;65021;53.174;18.160;2023-08-17T07:01:30;101682.00;;;21.59;78.51
76229;BME280;65021;53.174;18.160;2023-08-17T07:03:56;101684.08;;;21.68;78.85
76229;BME280;65021;53.174;18.160;2023-08-17T07:06:27;101686.54;;;21.84;78.72
76229;BME280;65021;53.174;18.160;2023-08-17T07:08:55;101679.95;;;21.92;78.48
76229;BME280;65021;53.174;18.160;2023-08-17T07:11:22;101683.39;;;21.92;78.45
76229;BME280;65021;53.174;18.160;2023-08-17T07:13:48;101677.50;;;21.93;78.17
76229;BME280;65021;53.174;18.160;2023-08-17T07:16:15;101678.05;;;21.95;78.17
76229;BME280;65021;53.174;18.160;2023-08-17T07:18:41;101674.82;;;21.83;77.64
76229;BME280;65021;53.174;18.160;2023-08-17T07:21:08;101673.83;;;21.73;77.31
76229;BME280;65021;53.174;18.160;2023-08-17T07:23:34;101674.41;;;21.55;76.85
76229;BME280;65021;53.174;18.160;2023-08-17T07:26:01;101676.87;;;21.47;76.99
76229;BME280;65021;53.174;18.160;2023-08-17T07:28:28;101682.07;;;21.45;76.76
76229;BME280;65021;53.174;18.160;2023-08-17T07:30:56;101681.45;;;21.53;77.44
76229;BME280;65021;53.174;18.160;2023-08-17T07:33:23;101686.38;;;21.64;76.46
76229;BME280;65021;53.174;18.160;2023-08-17T07:35:50;101686.32;;;21.70;76.49
76229;BME280;65021;53.174;18.160;2023-08-17T07:38:19;101686.71;;;21.75;76.38
76229;BME280;65021;53.174;18.160;2023-08-17T07:40:46;101691.06;;;21.82;76.88
76229;BME280;65021;53.174;18.160;2023-08-17T07:43:12;101696.55;;;21.90;75.98
76229;BME280;65021;53.174;18.160;2023-08-17T07:45:39;101691.89;;;21.78;75.78
76229;BME280;65021;53.174;18.160;2023-08-17T07:48:06;101689.52;;;21.77;76.38
76229;BME280;65021;53.174;18.160;2023-08-17T07:50:33;101684.45;;;21.82;75.82
76229;BME280;65021;53.174;18.160;2023-08-17T07:52:59;101682.79;;;21.85;75.83
76229;BME280;65021;53.174;18.160;2023-08-17T07:55:28;101681.96;;;21.89;75.74
76229;BME280;65021;53.174;18.160;2023-08-17T07:57:55;101674.82;;;21.90;75.32
76229;BME280;65021;53.174;18.160;2023-08-17T08:00:21;101668.48;;;21.95;75.34
76229;BME280;65021;53.174;18.160;2023-08-17T08:02:48;101661.86;;;22.04;74.60
76229;BME280;65021;53.174;18.160;2023-08-17T08:05:14;101664.48;;;22.12;73.94
76229;BME280;65021;53.174;18.160;2023-08-17T08:07:41;101659.27;;;22.21;73.76
76229;BME280;65021;53.174;18.160;2023-08-17T08:10:09;101660.16;;;22.34;73.88
76229;BME280;65021;53.174;18.160;2023-08-17T08:12:35;101660.30;;;22.49;73.16
76229;BME280;65021;53.174;18.160;2023-08-17T08:15:05;101668.71;;;22.48;72.62
76229;BME280;65021;53.174;18.160;2023-08-17T08:17:34;101674.39;;;22.62;73.53
76229;BME280;65021;53.174;18.160;2023-08-17T08:20:01;101675.86;;;22.75;72.31
76229;BME280;65021;53.174;18.160;2023-08-17T08:22:29;101682.02;;;22.67;71.90
76229;BME280;65021;53.174;18.160;2023-08-17T08:24:57;101684.52;;;22.66;71.68
76229;BME280;65021;53.174;18.160;2023-08-17T08:27:24;101689.16;;;22.79;71.60
76229;BME280;65021;53.174;18.160;2023-08-17T08:29:51;101708.17;;;23.27;70.88
76229;BME280;65021;53.174;18.160;2023-08-17T08:32:17;101721.64;;;23.61;69.10
76229;BME280;65021;53.174;18.160;2023-08-17T08:34:44;101709.80;;;23.69;68.03
76229;BME280;65021;53.174;18.160;2023-08-17T08:37:11;101695.18;;;23.71;68.38
76229;BME280;65021;53.174;18.160;2023-08-17T08:39:53;101685.12;;;23.78;68.05
76229;BME280;65021;53.174;18.160;2023-08-17T08:42:22;101679.30;;;23.77;66.92
76229;BME280;65021;53.174;18.160;2023-08-17T08:44:52;101674.94;;;23.66;66.84
76229;BME280;65021;53.174;18.160;2023-08-17T08:47:20;101673.69;;;23.75;67.64
76229;BME280;65021;53.174;18.160;2023-08-17T08:52:36;101653.46;;;23.88;66.53
76229;BME280;65021;53.174;18.160;2023-08-17T08:55:21;101633.16;;;23.81;65.58
76229;BME280;65021;53.174;18.160;2023-08-17T08:57:52;101623.30;;;23.71;65.81
76229;BME280;65021;53.174;18.160;2023-08-17T09:00:22;101616.45;;;23.64;65.83
76229;BME280;65021;53.174;18.160;2023-08-17T09:02:49;101615.84;;;23.63;65.91
76229;BME280;65021;53.174;18.160;2023-08-17T09:05:17;101620.15;;;23.66;65.72
76229;BME280;65021;53.174;18.160;2023-08-17T09:07:44;101630.95;;;23.74;65.66
76229;BME280;65021;53.174;18.160;2023-08-17T09:10:11;101636.80;;;23.83;65.46
76229;BME280;65021;53.174;18.160;2023-08-17T09:12:39;101632.84;;;24.02;65.80
76229;BME280;65021;53.174;18.160;2023-08-17T09:15:20;101634.66;;;24.45;65.02
76229;BME280;65021;53.174;18.160;2023-08-17T09:17:47;101627.86;;;24.75;63.21
76229;BME280;65021;53.174;18.160;2023-08-17T09:20:41;101632.17;;;24.70;62.52
76229;BME280;65021;53.174;18.160;2023-08-17T09:23:15;101628.36;;;24.67;63.43
76229;BME280;65021;53.174;18.160;2023-08-17T09:25:44;101626.71;;;24.67;63.27
76229;BME280;65021;53.174;18.160;2023-08-17T09:28:13;101635.23;;;24.68;62.84
76229;BME280;65021;53.174;18.160;2023-08-17T09:30:57;101638.39;;;24.76;62.63
76229;BME280;65021;53.174;18.160;2023-08-17T09:33:29;101644.66;;;24.76;62.55
76229;BME280;65021;53.174;18.160;2023-08-17T09:35:57;101644.34;;;24.62;62.45
76229;BME280;65021;53.174;18.160;2023-08-17T09:38:25;101640.66;;;24.45;63.02
76229;BME280;65021;53.174;18.160;2023-08-17T09:40:52;101638.59;;;24.36;62.95
76229;BME280;65021;53.174;18.160;2023-08-17T09:43:19;101636.92;;;24.23;63.21
76229;BME280;65021;53.174;18.160;2023-08-17T09:45:48;101633.23;;;24.20;63.91
76229;BME280;65021;53.174;18.160;2023-08-17T09:48:17;101630.77;;;24.21;63.73
76229;BME280;65021;53.174;18.160;2023-08-17T09:50:44;101612.10;;;24.22;63.74
76229;BME280;65021;53.174;18.160;2023-08-17T09:53:16;101602.73;;;24.22;63.81
76229;BME280;65021;53.174;18.160;2023-08-17T09:55:44;101598.02;;;24.27;63.57
76229;BME280;65021;53.174;18.160;2023-08-17T09:58:12;101587.15;;;24.35;63.56
76229;BME280;65021;53.174;18.160;2023-08-17T10:00:47;101581.82;;;24.44;63.23
76229;BME280;65021;53.174;18.160;2023-08-17T10:03:16;101577.70;;;24.48;62.99
76229;BME280;65021;53.174;18.160;2023-08-17T10:05:45;101570.36;;;24.53;63.20
76229;BME280;65021;53.174;18.160;2023-08-17T10:08:12;101563.79;;;24.72;63.07
76229;BME280;65021;53.174;18.160;2023-08-17T10:10:43;101555.84;;;24.87;62.76
76229;BME280;65021;53.174;18.160;2023-08-17T10:13:17;101558.20;;;24.91;62.32
76229;BME280;65021;53.174;18.160;2023-08-17T10:16:03;101553.28;;;25.00;62.04
76229;BME280;65021;53.174;18.160;2023-08-17T10:18:49;101544.95;;;25.10;61.28
76229;BME280;65021;53.174;18.160;2023-08-17T10:21:27;101535.51;;;25.24;60.59
76229;BME280;65021;53.174;18.160;2023-08-17T10:23:58;101525.80;;;25.30;60.74
76229;BME280;65021;53.174;18.160;2023-08-17T10:26:25;101522.09;;;25.28;60.84
76229;BME280;65021;53.174;18.160;2023-08-17T10:28:55;101520.95;;;25.26;61.07
76229;BME280;65021;53.174;18.160;2023-08-17T10:31:25;101519.50;;;25.13;61.25
76229;BME280;65021;53.174;18.160;2023-08-17T10:33:51;101517.78;;;25.02;61.71
76229;BME280;65021;53.174;18.160;2023-08-17T10:36:19;101518.88;;;25.00;61.42
76229;BME280;65021;53.174;18.160;2023-08-17T10:39:17;101518.49;;;25.20;61.75
76229;BME280;65021;53.174;18.160;2023-08-17T10:41:48;101523.73;;;25.52;61.08
76229;BME280;65021;53.174;18.160;2023-08-17T10:44:18;101524.66;;;25.56;60.70
76229;BME280;65021;53.174;18.160;2023-08-17T10:47:20;101529.51;;;25.63;60.50
76229;BME280;65021;53.174;18.160;2023-08-17T10:52:43;101526.82;;;25.81;60.15
76229;BME280;65021;53.174;18.160;2023-08-17T10:55:12;101526.92;;;25.84;59.85
76229;BME280;65021;53.174;18.160;2023-08-17T10:57:43;101528.20;;;25.80;59.86
76229;BME280;65021;53.174;18.160;2023-08-17T11:00:21;101527.23;;;25.82;59.52
76229;BME280;65021;53.174;18.160;2023-08-17T11:03:19;101527.88;;;25.87;59.60
76229;BME280;65021;53.174;18.160;2023-08-17T11:05:46;101531.94;;;25.87;59.46
76229;BME280;65021;53.174;18.160;2023-08-17T11:08:21;101528.26;;;25.84;59.91
76229;BME280;65021;53.174;18.160;2023-08-17T11:11:11;101527.21;;;25.82;60.28
76229;BME280;65021;53.174;18.160;2023-08-17T11:13:43;101528.94;;;25.65;60.51
76229;BME280;65021;53.174;18.160;2023-08-17T11:16:12;101534.73;;;25.54;61.18
76229;BME280;65021;53.174;18.160;2023-08-17T11:18:39;101537.04;;;25.62;61.79
76229;BME280;65021;53.174;18.160;2023-08-17T11:21:16;101541.28;;;25.77;61.43
76229;BME280;65021;53.174;18.160;2023-08-17T11:23:45;101546.52;;;25.89;60.79
76229;BME280;65021;53.174;18.160;2023-08-17T11:26:15;101554.13;;;25.99;60.67
76229;BME280;65021;53.174;18.160;2023-08-17T11:28:42;101553.56;;;26.18;60.64
76229;BME280;65021;53.174;18.160;2023-08-17T11:31:12;101556.64;;;26.33;60.10
76229;BME280;65021;53.174;18.160;2023-08-17T11:33:42;101553.23;;;26.43;59.93
76229;BME280;65021;53.174;18.160;2023-08-17T11:36:09;101550.90;;;26.43;59.30
76229;BME280;65021;53.174;18.160;2023-08-17T11:38:41;101544.29;;;26.43;59.63
76229;BME280;65021;53.174;18.160;2023-08-17T11:41:09;101541.54;;;26.55;59.80
76229;BME280;65021;53.174;18.160;2023-08-17T11:43:36;101534.88;;;26.61;59.13
76229;BME280;65021;53.174;18.160;2023-08-17T11:46:05;101536.44;;;26.63;59.36
76229;BME280;65021;53.174;18.160;2023-08-17T11:48:32;101532.92;;;26.70;59.55
76229;BME280;65021;53.174;18.160;2023-08-17T11:51:00;101525.45;;;26.75;58.91
76229;BME280;65021;53.174;18.160;2023-08-17T11:53:33;101522.44;;;26.82;59.05
76229;BME280;65021;53.174;18.160;2023-08-17T11:56:00;101521.66;;;26.81;58.48
76229;BME280;65021;53.174;18.160;2023-08-17T11:58:40;101518.77;;;26.80;58.99
76229;BME280;65021;53.174;18.160;2023-08-17T12:01:11;101525.33;;;26.83;59.11
76229;BME280;65021;53.174;18.160;2023-08-17T12:03:39;101524.64;;;26.70;59.11
76229;BME280;65021;53.174;18.160;2023-08-17T12:06:06;101529.41;;;26.59;59.64
76229;BME280;65021;53.174;18.160;2023-08-17T12:08:33;101527.92;;;26.66;59.28
76229;BME280;65021;53.174;18.160;2023-08-17T12:11:00;101528.78;;;26.78;59.27
76229;BME280;65021;53.174;18.160;2023-08-17T12:13:33;101524.11;;;26.88;59.29
76229;BME280;65021;53.174;18.160;2023-08-17T12:16:01;101516.77;;;27.05;59.15
76229;BME280;65021;53.174;18.160;2023-08-17T12:18:28;101515.45;;;27.23;58.73
76229;BME280;65021;53.174;18.160;2023-08-17T12:20:55;101516.40;;;27.30;57.77
76229;BME280;65021;53.174;18.160;2023-08-17T12:23:22;101515.73;;;27.31;58.12
76229;BME280;65021;53.174;18.160;2023-08-17T12:25:55;101512.16;;;27.39;57.55
76229;BME280;65021;53.174;18.160;2023-08-17T12:28:23;101518.32;;;27.47;57.31
76229;BME280;65021;53.174;18.160;2023-08-17T12:31:00;101515.73;;;27.58;56.93
76229;BME280;65021;53.174;18.160;2023-08-17T12:33:27;101517.13;;;27.53;56.56
76229;BME280;65021;53.174;18.160;2023-08-17T12:35:54;101521.13;;;27.51;56.36
76229;BME280;65021;53.174;18.160;2023-08-17T12:38:23;101520.42;;;27.43;56.67
76229;BME280;65021;53.174;18.160;2023-08-17T12:40:50;101521.91;;;27.38;56.53
76229;BME280;65021;53.174;18.160;2023-08-17T12:43:16;101519.07;;;27.44;56.82
76229;BME280;65021;53.174;18.160;2023-08-17T12:45:43;101515.76;;;27.50;56.68
76229;BME280;65021;53.174;18.160;2023-08-17T12:48:09;101513.34;;;27.49;56.53
76229;BME280;65021;53.174;18.160;2023-08-17T12:50:36;101515.98;;;27.44;56.58
76229;BME280;65021;53.174;18.160;2023-08-17T12:53:02;101510.32;;;27.34;56.58